• Join FlightAware (Why Join?)
  • Login
  • US Flag 
06:34AM EDT


 

Airport Tracker/Info


-or-


 

Live Flight TrackerFlight Track Log ✈ TRS679 ✈ 06-Apr-2013 ✈ KATL - KRDU

Flight Track Log - Related Links

Times and Time Zones

All times are in EDT time to prevent confusion due to time zone crossing. See the TRS679 flight status page for this flight to view local times or setup timezone preferences in your user account.

Time Position Orientation Groundspeed Altitude Reporting Facility
EDT Latitude Longitude Course Direction KTS MPH feet Rate Location/Type
06:28PM 33.6331 -84.3906 121° Southeast 454 522 2,500  Level Atlanta Center
06:29PM 33.6333 -84.3500 90° East 216 249 2,900 2,040 Climbing Atlanta TRACON
06:30PM 33.6333 -84.2833 90° East 261 300 5,100 2,400 Climbing Atlanta TRACON
06:31PM 33.6333 -84.1833 90° East 278 320 7,700 2,040 Climbing Atlanta TRACON
06:32PM 33.6169 -84.0264 97° East 293 337 10,800 1,620 Climbing Atlanta Center
06:33PM 33.5981 -83.9142 101° East 325 374 12,000 1,560 Climbing Atlanta Center
06:34PM 33.5971 -83.7608 121° Southeast  Level FlightAware Approximate
06:35PM 33.5728 -83.7894 104° East 369 425 14,000  Level Atlanta Center
06:35PM 33.5517 -83.6600 101° East 391 450 15,800 1,860 Climbing Atlanta Center
06:36PM 33.5572 -83.5378 87° East 400 460 17,700 1,920 Climbing Atlanta Center
06:37PM 33.5775 -83.3681 82° East 411 473 19,700 1,800 Climbing Atlanta Center
06:38PM 33.5911 -83.2208 84° East 434 499 21,400 1,680 Climbing Atlanta Center
06:39PM 33.6108 -83.0661 81° East 451 519 23,100 1,620 Climbing Atlanta Center
06:40PM 33.6261 -82.9061 83° East 470 541 24,700 1,620 Climbing Atlanta Center
06:41PM 33.6414 -82.7439 84° East 483 556 26,400 1,680 Climbing Atlanta Center
06:42PM 33.6583 -82.5814 83° East 483 556 28,100 1,260 Climbing Atlanta Center
06:43PM 33.6750 -82.4164 83° East 483 556 29,000 300 Climbing Atlanta Center
06:45PM 33.7089 -82.1461 81° East 487 560 29,000  Level Jacksonville Center
06:46PM 33.7308 -81.9886 80° East 482 555 29,000  Level Jacksonville Center
06:47PM 33.7756 -81.8381 70° East 474 545 29,000  Level Jacksonville Center
06:48PM 33.8517 -81.7097 54° Northeast 464 534 29,000  Level Jacksonville Center
06:49PM 33.9275 -81.5786 55° Northeast 464 534 29,000  Level Jacksonville Center
06:50PM 34.0033 -81.4497 55° Northeast 464 534 29,000  Level Jacksonville Center
06:51PM 34.0769 -81.3206 55° Northeast 464 534 29,000  Level Jacksonville Center
06:52PM 34.1506 -81.1914 55° Northeast 469 540 29,000  Level Jacksonville Center
06:53PM 34.2278 -81.0617 54° Northeast 474 545 29,000  Level Jacksonville Center
06:54PM 34.2969 -80.9294 58° Northeast 474 545 29,000 -480 Level Jacksonville Center
06:55PM 34.3739 -80.7919 56° Northeast 484 557 28,100 -1,560 Descending Jacksonville Center
06:56PM 34.4469 -80.6667 55° Northeast 482 555 25,900 -2,100 Descending Jacksonville Center
06:57PM 34.5197 -80.5389 55° Northeast 477 549 24,000 -1,020 Descending Jacksonville Center
06:58PM 34.5903 -80.4133 56° Northeast 460 529 23,900 -540 Descending Jacksonville Center
06:59PM 34.6628 -80.2825 56° Northeast 454 522 23,000 -540 Descending Jacksonville Center
07:00PM 34.7158 -80.1803 58° Northeast 448 516 23,000  Level Washington Center
07:01PM 34.7872 -80.0606 54° Northeast 448 516 23,000  Level Washington Center
07:02PM 34.8678 -79.9711 42° Northeast 434 499 23,000  Level Washington Center
07:03PM 34.9569 -79.8722 42° Northeast 434 499 23,000 -720 Level Washington Center
07:04PM 35.0481 -79.7706 42° Northeast 434 499 21,600 -1,980 Descending Washington Center
07:05PM 35.1328 -79.6758 42° Northeast 423 487 19,100 -2,700 Descending Washington Center
07:06PM 35.2192 -79.5886 40° Northeast 413 475 16,300 -2,700 Descending Washington Center
07:07PM 35.3047 -79.5292 30° Northeast 370 426 14,200 -1,920 Descending Washington Center
07:08PM 35.3967 -79.4625 31° Northeast 347 399 12,600 -1,320 Descending Washington Center
07:09PM 35.4756 -79.4103 28° Northeast 301 346 11,500 -1,320 Descending Washington Center
07:10PM 35.5383 -79.3342 45° Northeast 306 352 10,000 -1,560 Descending Washington Center
07:11PM 35.5742 -79.2592 60° Northeast 298 343 8,600 -1,620 Descending Washington Center
07:12PM 35.6203 -79.1769 55° Northeast 282 325 6,900 -1,380 Descending Washington Center
07:13PM 35.6603 -79.0944 59° Northeast 273 314 5,700 -1,320 Descending Washington Center
07:14PM 35.7025 -79.0092 59° Northeast 271 312 4,200 -1,380 Descending Washington Center
07:15PM 35.7439 -78.9497 49° Northeast 267 307 3,000 -780 Descending Washington Center
07:16PM 35.7850 -78.8975 46° Northeast 236 272 2,700 -660 Descending Washington Center
07:17PM 35.8194 -78.8528 46° Northeast 144 166 1,700 -900 Descending Washington Center
07:18PM 35.8475 -78.8183 45° Northeast 132 152 900 -840 Descending Washington Center
07:20PM 35.8667 -78.7833 51° Northeast  Level FlightAware Approximate